YM Initiative — A8HX4 — position and weather

sailwx.info

Track history (hours):
 
Tides and Currents Weather Stations Pressure Air Temp Water Temp Dewpoint Dewpoint Depression Visibility Wind Speed Wind Dir Waves Ship Positions

YM Initiative

Last reported at 2015-Aug-01 03:09 UTC. Time now 2015-Aug-01 09:47 UTC.
Position N 01°15' E 104°03'.

Length 173 m; draft 7.7 m.

Type: Cargo ship. MMSI: 635961368.

Date/timePositionNaut miles runAvg speedWind from/ knotsBaromVisibWave heightAir tempDewpointWater temp
2015-Aug-01 03:09N 01°15' E 104°03'711.6
2015-Aug-01 02:33N 01°13' E 103°57'9 9.0
2015-Aug-01 01:33N 01°13' E 103°48'4 3.4
2015-Aug-01 00:29N 01°17' E 103°47'0 0.0
2015-Jul-31 23:29N 01°17' E 103°47'0 0.0
2015-Jul-31 22:28N 01°17' E 103°47'0 0.0
2015-Jul-31 21:29N 01°17' E 103°47'0 0.0
2015-Jul-31 20:31N 01°17' E 103°47'0 0.0
2015-Jul-31 19:28N 01°17' E 103°47'0 0.0
2015-Jul-31 18:29N 01°17' E 103°47'0 0.0
2015-Jul-31 17:32N 01°17' E 103°47'0 0.0
2015-Jul-31 16:29N 01°17' E 103°47'0 0.0
2015-Jul-31 15:29N 01°17' E 103°47'0 0.0
2015-Jul-31 14:29N 01°17' E 103°47'0 0.0
2015-Jul-31 13:32N 01°17' E 103°47'0 0.0
2015-Jul-31 12:29N 01°17' E 103°47'0 0.0
2015-Jul-31 11:31N 01°17' E 103°47'4 4.4
2015-Jul-31 10:33N 01°13' E 103°49'1010.1
2015-Jul-31 09:33N 01°15' E 103°58'7 7.4
2015-Jul-31 08:33N 01°17' E 104°06'9 8.7
2015-Jul-31 07:33N 01°17' E 104°14'  
2015-Jul-27 10:33N 01°14' E 104°00'1615.5
2015-Jul-27 09:33N 01°08' E 103°46'15315.2
2015-Jul-26 23:32N 02°26' E 101°35'3015.0
2015-Jul-26 21:34N 02°47' E 101°14'11 9.8
2015-Jul-26 20:28N 02°57' E 101°18'0 0.1
2015-Jul-26 19:28N 02°57' E 101°18'0 0.1
2015-Jul-26 18:31N 02°57' E 101°18'0 0.0
2015-Jul-26 16:31N 02°57' E 101°18'0 0.0
2015-Jul-26 14:31N 02°57' E 101°18'0 0.1
2015-Jul-26 13:31N 02°57' E 101°18'0 0.0
2015-Jul-26 11:31N 02°57' E 101°18'0 0.0
2015-Jul-26 09:28N 02°57' E 101°18'0 0.0
2015-Jul-26 07:31N 02°57' E 101°18'0 0.0
2015-Jul-26 05:22N 02°57' E 101°18'0 0.0
2015-Jul-26 03:31N 02°57' E 101°18'0 0.0
2015-Jul-26 01:33N 02°57' E 101°18'10 4.8
2015-Jul-25 23:30N 02°47' E 101°16'0 0.0
2015-Jul-25 21:24N 02°47' E 101°16'0 0.0
2015-Jul-25 18:33N 02°47' E 101°16'0 0.0
2015-Jul-25 16:33N 02°47' E 101°16'0 0.0
2015-Jul-25 14:33N 02°47' E 101°16'0 0.0
2015-Jul-25 12:33N 02°47' E 101°16'0 0.0
2015-Jul-25 10:33N 02°47' E 101°16'3311.1
2015-Jul-25 07:34N 02°26' E 101°41'13915.5
2015-Jul-24 22:33N 01°13' E 103°40'7 7.2
2015-Jul-24 21:33N 01°16' E 103°47'0 0.1
2015-Jul-24 20:33N 01°16' E 103°46'0 0.0
2015-Jul-24 19:33N 01°16' E 103°46'0 0.0
2015-Jul-24 18:33N 01°16' E 103°46'0 0.0
2015-Jul-24 17:33N 01°16' E 103°46'0 0.0
2015-Jul-24 16:27N 01°16' E 103°46'0 0.0
2015-Jul-24 15:33N 01°16' E 103°46'0 0.0
2015-Jul-24 14:33N 01°16' E 103°46'0 0.0
2015-Jul-24 13:27N 01°16' E 103°46'0 0.0
2015-Jul-24 12:33N 01°16' E 103°46'0 0.0
2015-Jul-24 11:33N 01°16' E 103°46'0 0.1
2015-Jul-24 10:33N 01°16' E 103°47'7 7.2
2015-Jul-24 09:34N 01°13' E 103°53'8 7.5
2015-Jul-24 08:34N 01°16' E 104°00'10 9.2
2015-Jul-24 07:31N 01°17' E 104°10'  
Track history (hours):
 
Tides and Currents Weather Stations Pressure Air Temp Water Temp Dewpoint Dewpoint Depression Visibility Wind Speed Wind Dir Waves Ship Positions

YM Initiative

Last reported at 2015-Aug-01 03:09 UTC. Time now 2015-Aug-01 09:47 UTC.
Position N 01°15' E 104°03'.

Length 173 m; draft 7.7 m.

Type: Cargo ship. MMSI: 635961368.

Date/timePositionNaut miles runAvg speedWind from/ knotsBaromVisibWave heightAir tempDewpointWater temp
2015-Aug-01 03:09N 01°15' E 104°03'711.6
2015-Aug-01 02:33N 01°13' E 103°57'9 9.0
2015-Aug-01 01:33N 01°13' E 103°48'4 3.4
2015-Aug-01 00:29N 01°17' E 103°47'0 0.0
2015-Jul-31 23:29N 01°17' E 103°47'0 0.0
2015-Jul-31 22:28N 01°17' E 103°47'0 0.0
2015-Jul-31 21:29N 01°17' E 103°47'0 0.0
2015-Jul-31 20:31N 01°17' E 103°47'0 0.0
2015-Jul-31 19:28N 01°17' E 103°47'0 0.0
2015-Jul-31 18:29N 01°17' E 103°47'0 0.0
2015-Jul-31 17:32N 01°17' E 103°47'0 0.0
2015-Jul-31 16:29N 01°17' E 103°47'0 0.0
2015-Jul-31 15:29N 01°17' E 103°47'0 0.0
2015-Jul-31 14:29N 01°17' E 103°47'0 0.0
2015-Jul-31 13:32N 01°17' E 103°47'0 0.0
2015-Jul-31 12:29N 01°17' E 103°47'0 0.0
2015-Jul-31 11:31N 01°17' E 103°47'4 4.4
2015-Jul-31 10:33N 01°13' E 103°49'1010.1
2015-Jul-31 09:33N 01°15' E 103°58'7 7.4
2015-Jul-31 08:33N 01°17' E 104°06'9 8.7
2015-Jul-31 07:33N 01°17' E 104°14'  
2015-Jul-27 10:33N 01°14' E 104°00'1615.5
2015-Jul-27 09:33N 01°08' E 103°46'15315.2
2015-Jul-26 23:32N 02°26' E 101°35'3015.0
2015-Jul-26 21:34N 02°47' E 101°14'11 9.8
2015-Jul-26 20:28N 02°57' E 101°18'0 0.1
2015-Jul-26 19:28N 02°57' E 101°18'0 0.1
2015-Jul-26 18:31N 02°57' E 101°18'0 0.0
2015-Jul-26 16:31N 02°57' E 101°18'0 0.0
2015-Jul-26 14:31N 02°57' E 101°18'0 0.1
2015-Jul-26 13:31N 02°57' E 101°18'0 0.0
2015-Jul-26 11:31N 02°57' E 101°18'0 0.0
2015-Jul-26 09:28N 02°57' E 101°18'0 0.0
2015-Jul-26 07:31N 02°57' E 101°18'0 0.0
2015-Jul-26 05:22N 02°57' E 101°18'0 0.0
2015-Jul-26 03:31N 02°57' E 101°18'0 0.0
2015-Jul-26 01:33N 02°57' E 101°18'10 4.8
2015-Jul-25 23:30N 02°47' E 101°16'0 0.0
2015-Jul-25 21:24N 02°47' E 101°16'0 0.0
2015-Jul-25 18:33N 02°47' E 101°16'0 0.0
2015-Jul-25 16:33N 02°47' E 101°16'0 0.0
2015-Jul-25 14:33N 02°47' E 101°16'0 0.0
2015-Jul-25 12:33N 02°47' E 101°16'0 0.0
2015-Jul-25 10:33N 02°47' E 101°16'3311.1
2015-Jul-25 07:34N 02°26' E 101°41'13915.5
2015-Jul-24 22:33N 01°13' E 103°40'7 7.2
2015-Jul-24 21:33N 01°16' E 103°47'0 0.1
2015-Jul-24 20:33N 01°16' E 103°46'0 0.0
2015-Jul-24 19:33N 01°16' E 103°46'0 0.0
2015-Jul-24 18:33N 01°16' E 103°46'0 0.0
2015-Jul-24 17:33N 01°16' E 103°46'0 0.0
2015-Jul-24 16:27N 01°16' E 103°46'0 0.0
2015-Jul-24 15:33N 01°16' E 103°46'0 0.0
2015-Jul-24 14:33N 01°16' E 103°46'0 0.0
2015-Jul-24 13:27N 01°16' E 103°46'0 0.0
2015-Jul-24 12:33N 01°16' E 103°46'0 0.0
2015-Jul-24 11:33N 01°16' E 103°46'0 0.1
2015-Jul-24 10:33N 01°16' E 103°47'7 7.2
2015-Jul-24 09:34N 01°13' E 103°53'8 7.5
2015-Jul-24 08:34N 01°16' E 104°00'10 9.2
2015-Jul-24 07:31N 01°17' E 104°10'  

Dump ship's entire track history